EHGG/GRQ METAR and TAF weather

Enter ICAO airport designator
Station Type Date Time Source
EHGG METAR 2018/12/13 15:55 UTC NOAA

EHGG 131555Z AUTO 06008KT 9999 NCD 01/M02 Q1023 NOSIG


Station Type Date Time Source
EHGG Decoded METAR 2018/12/13 15:55 UTC NOAA

Groningen Airport Eelde, Netherlands (EHGG) 53-08N 006-35E 4M
Dec 13, 2018 - 10:55 AM EST / 2018.12.13 1555 UTC
Wind: from the ENE (060 degrees) at 9 MPH (8 KT):0
Visibility: greater than 7 mile(s):0
Temperature: 33 F (1 C)
Windchill: 24 F (-4 C):1
Dew Point: 28 F (-2 C)
Relative Humidity: 80%
Pressure (altimeter): 30.21 in. Hg (1023 hPa)
ob: EHGG 131555Z AUTO 06008KT 9999 NCD 01/M02 Q1023 NOSIG
cycle: 16

Station Type Date Time Source
EHGG TAF 2018/12/13 12:27 UTC NOAA

TAF EHGG 131105Z 1312/1418 08008KT 9999 BKN018 PROB40 1322/1410 6000 PROB30 1404/1410 BKN007


Example: see airport list